sensor_id;sensor_type;location;lat;lon;timestamp;P1;durP1;ratioP1;P2;durP2;ratioP2
60344;SDS011;46188;52.324;8.032;2023-02-15T00:01:50;21.52;;;12.60;;
60344;SDS011;46188;52.324;8.032;2023-02-15T00:04:16;19.95;;;12.18;;
60344;SDS011;46188;52.324;8.032;2023-02-15T00:06:43;21.85;;;12.88;;
60344;SDS011;46188;52.324;8.032;2023-02-15T00:09:09;22.38;;;13.00;;
60344;SDS011;46188;52.324;8.032;2023-02-15T00:11:35;21.30;;;12.25;;
60344;SDS011;46188;52.324;8.032;2023-02-15T00:14:16;21.20;;;12.13;;
60344;SDS011;46188;52.324;8.032;2023-02-15T00:16:45;24.00;;;12.68;;
60344;SDS011;46188;52.324;8.032;2023-02-15T00:19:12;22.08;;;12.63;;
60344;SDS011;46188;52.324;8.032;2023-02-15T00:21:39;17.58;;;12.98;;
60344;SDS011;46188;52.324;8.032;2023-02-15T00:24:05;22.85;;;12.45;;
60344;SDS011;46188;52.324;8.032;2023-02-15T00:26:32;20.63;;;12.75;;
60344;SDS011;46188;52.324;8.032;2023-02-15T00:28:59;22.42;;;12.80;;
60344;SDS011;46188;52.324;8.032;2023-02-15T00:31:26;20.42;;;12.90;;
60344;SDS011;46188;52.324;8.032;2023-02-15T00:33:53;19.75;;;12.10;;
60344;SDS011;46188;52.324;8.032;2023-02-15T00:36:19;22.08;;;13.00;;
60344;SDS011;46188;52.324;8.032;2023-02-15T00:38:45;16.20;;;11.43;;
60344;SDS011;46188;52.324;8.032;2023-02-15T00:41:10;22.27;;;13.52;;
60344;SDS011;46188;52.324;8.032;2023-02-15T00:43:36;21.45;;;12.70;;
60344;SDS011;46188;52.324;8.032;2023-02-15T00:46:02;18.92;;;12.50;;
60344;SDS011;46188;52.324;8.032;2023-02-15T00:48:28;21.58;;;12.45;;
60344;SDS011;46188;52.324;8.032;2023-02-15T00:50:55;23.98;;;13.02;;
60344;SDS011;46188;52.324;8.032;2023-02-15T00:53:22;19.38;;;12.27;;
60344;SDS011;46188;52.324;8.032;2023-02-15T00:55:48;20.30;;;11.75;;
60344;SDS011;46188;52.324;8.032;2023-02-15T00:58:14;18.98;;;12.55;;
60344;SDS011;46188;52.324;8.032;2023-02-15T01:00:40;18.65;;;11.90;;
60344;SDS011;46188;52.324;8.032;2023-02-15T01:03:09;19.35;;;12.13;;
60344;SDS011;46188;52.324;8.032;2023-02-15T01:05:35;18.48;;;11.75;;
60344;SDS011;46188;52.324;8.032;2023-02-15T01:08:01;20.20;;;12.38;;
60344;SDS011;46188;52.324;8.032;2023-02-15T01:10:27;17.67;;;11.85;;
60344;SDS011;46188;52.324;8.032;2023-02-15T01:12:53;19.00;;;11.25;;
60344;SDS011;46188;52.324;8.032;2023-02-15T01:15:19;18.73;;;11.40;;
60344;SDS011;46188;52.324;8.032;2023-02-15T01:17:44;17.52;;;11.40;;
60344;SDS011;46188;52.324;8.032;2023-02-15T01:20:16;20.58;;;12.40;;
60344;SDS011;46188;52.324;8.032;2023-02-15T01:22:42;17.05;;;11.57;;
60344;SDS011;46188;52.324;8.032;2023-02-15T01:25:07;16.13;;;10.98;;
60344;SDS011;46188;52.324;8.032;2023-02-15T01:27:33;17.38;;;11.20;;
60344;SDS011;46188;52.324;8.032;2023-02-15T01:29:58;18.30;;;11.45;;
60344;SDS011;46188;52.324;8.032;2023-02-15T01:32:24;14.80;;;10.23;;
60344;SDS011;46188;52.324;8.032;2023-02-15T01:34:49;19.15;;;12.02;;
60344;SDS011;46188;52.324;8.032;2023-02-15T01:37:15;17.50;;;11.77;;
60344;SDS011;46188;52.324;8.032;2023-02-15T01:39:40;18.92;;;11.57;;
60344;SDS011;46188;52.324;8.032;2023-02-15T01:42:09;20.95;;;12.18;;
60344;SDS011;46188;52.324;8.032;2023-02-15T01:47:18;18.95;;;11.02;;
60344;SDS011;46188;52.324;8.032;2023-02-15T01:50:08;19.05;;;11.43;;
60344;SDS011;46188;52.324;8.032;2023-02-15T01:52:38;17.95;;;11.15;;
60344;SDS011;46188;52.324;8.032;2023-02-15T01:55:07;16.40;;;10.00;;
60344;SDS011;46188;52.324;8.032;2023-02-15T01:57:34;18.67;;;11.93;;
60344;SDS011;46188;52.324;8.032;2023-02-15T02:00:00;16.95;;;10.50;;
60344;SDS011;46188;52.324;8.032;2023-02-15T02:02:29;18.13;;;10.60;;
60344;SDS011;46188;52.324;8.032;2023-02-15T02:04:57;17.20;;;11.05;;
60344;SDS011;46188;52.324;8.032;2023-02-15T02:07:26;13.90;;;9.82;;
60344;SDS011;46188;52.324;8.032;2023-02-15T02:09:54;17.67;;;10.82;;
60344;SDS011;46188;52.324;8.032;2023-02-15T02:12:20;19.55;;;11.15;;
60344;SDS011;46188;52.324;8.032;2023-02-15T02:14:47;18.95;;;11.75;;
60344;SDS011;46188;52.324;8.032;2023-02-15T02:17:16;18.77;;;10.95;;
60344;SDS011;46188;52.324;8.032;2023-02-15T02:31:37;18.83;;;11.50;;
60344;SDS011;46188;52.324;8.032;2023-02-15T02:39:55;19.63;;;10.98;;
60344;SDS011;46188;52.324;8.032;2023-02-15T02:42:49;21.38;;;11.95;;
60344;SDS011;46188;52.324;8.032;2023-02-15T02:47:52;15.60;;;10.25;;
60344;SDS011;46188;52.324;8.032;2023-02-15T02:50:25;20.63;;;11.10;;
60344;SDS011;46188;52.324;8.032;2023-02-15T02:52:53;18.05;;;10.82;;
60344;SDS011;46188;52.324;8.032;2023-02-15T03:00:27;16.92;;;10.43;;
60344;SDS011;46188;52.324;8.032;2023-02-15T03:03:02;19.40;;;11.48;;
60344;SDS011;46188;52.324;8.032;2023-02-15T03:05:33;17.15;;;11.48;;
60344;SDS011;46188;52.324;8.032;2023-02-15T03:08:02;20.90;;;11.20;;
60344;SDS011;46188;52.324;8.032;2023-02-15T03:10:31;19.55;;;10.98;;
60344;SDS011;46188;52.324;8.032;2023-02-15T03:12:58;17.17;;;10.77;;
60344;SDS011;46188;52.324;8.032;2023-02-15T03:15:26;16.50;;;10.75;;
60344;SDS011;46188;52.324;8.032;2023-02-15T03:18:23;18.02;;;10.43;;
60344;SDS011;46188;52.324;8.032;2023-02-15T03:20:53;17.95;;;10.75;;
60344;SDS011;46188;52.324;8.032;2023-02-15T03:23:21;19.60;;;10.85;;
60344;SDS011;46188;52.324;8.032;2023-02-15T03:25:54;17.52;;;10.43;;
60344;SDS011;46188;52.324;8.032;2023-02-15T03:28:27;15.88;;;10.27;;
60344;SDS011;46188;52.324;8.032;2023-02-15T03:30:58;16.92;;;9.73;;
60344;SDS011;46188;52.324;8.032;2023-02-15T03:33:27;15.43;;;9.70;;
60344;SDS011;46188;52.324;8.032;2023-02-15T03:35:55;17.48;;;10.77;;
60344;SDS011;46188;52.324;8.032;2023-02-15T03:38:25;17.83;;;10.40;;
60344;SDS011;46188;52.324;8.032;2023-02-15T03:41:16;19.02;;;11.50;;
60344;SDS011;46188;52.324;8.032;2023-02-15T03:43:46;19.92;;;10.77;;
60344;SDS011;46188;52.324;8.032;2023-02-15T03:49:12;20.83;;;11.70;;
60344;SDS011;46188;52.324;8.032;2023-02-15T03:52:05;16.65;;;10.30;;
60344;SDS011;46188;52.324;8.032;2023-02-15T03:54:34;17.52;;;10.38;;
60344;SDS011;46188;52.324;8.032;2023-02-15T03:57:18;16.70;;;10.95;;
60344;SDS011;46188;52.324;8.032;2023-02-15T04:00:15;20.33;;;11.93;;
60344;SDS011;46188;52.324;8.032;2023-02-15T04:05:40;22.50;;;10.80;;
60344;SDS011;46188;52.324;8.032;2023-02-15T04:08:07;18.35;;;10.88;;
60344;SDS011;46188;52.324;8.032;2023-02-15T04:10:33;21.10;;;12.40;;
60344;SDS011;46188;52.324;8.032;2023-02-15T04:15:43;16.48;;;10.50;;
60344;SDS011;46188;52.324;8.032;2023-02-15T04:18:27;19.67;;;11.25;;
60344;SDS011;46188;52.324;8.032;2023-02-15T04:21:11;15.07;;;9.20;;
60344;SDS011;46188;52.324;8.032;2023-02-15T04:23:54;14.13;;;8.55;;
60344;SDS011;46188;52.324;8.032;2023-02-15T04:26:38;25.88;;;11.30;;
60344;SDS011;46188;52.324;8.032;2023-02-15T04:29:03;20.27;;;11.70;;
60344;SDS011;46188;52.324;8.032;2023-02-15T04:31:29;18.92;;;11.23;;
60344;SDS011;46188;52.324;8.032;2023-02-15T04:33:54;18.55;;;10.98;;
60344;SDS011;46188;52.324;8.032;2023-02-15T04:36:20;21.23;;;11.52;;
60344;SDS011;46188;52.324;8.032;2023-02-15T04:38:45;18.52;;;11.00;;
60344;SDS011;46188;52.324;8.032;2023-02-15T04:41:10;19.63;;;11.65;;
60344;SDS011;46188;52.324;8.032;2023-02-15T04:43:37;19.35;;;12.05;;
60344;SDS011;46188;52.324;8.032;2023-02-15T04:46:03;19.08;;;12.02;;
60344;SDS011;46188;52.324;8.032;2023-02-15T04:48:29;20.38;;;11.65;;
60344;SDS011;46188;52.324;8.032;2023-02-15T04:50:55;19.33;;;11.48;;
60344;SDS011;46188;52.324;8.032;2023-02-15T04:53:20;22.65;;;11.30;;
60344;SDS011;46188;52.324;8.032;2023-02-15T04:55:46;17.98;;;10.70;;
60344;SDS011;46188;52.324;8.032;2023-02-15T04:58:11;20.92;;;11.77;;
60344;SDS011;46188;52.324;8.032;2023-02-15T05:00:36;23.23;;;11.90;;
60344;SDS011;46188;52.324;8.032;2023-02-15T05:03:02;16.98;;;11.13;;
60344;SDS011;46188;52.324;8.032;2023-02-15T05:05:28;20.38;;;12.07;;
60344;SDS011;46188;52.324;8.032;2023-02-15T05:07:53;19.88;;;12.68;;
60344;SDS011;46188;52.324;8.032;2023-02-15T05:10:19;18.90;;;11.93;;
60344;SDS011;46188;52.324;8.032;2023-02-15T05:12:44;19.45;;;11.80;;
60344;SDS011;46188;52.324;8.032;2023-02-15T05:15:10;19.35;;;11.63;;
60344;SDS011;46188;52.324;8.032;2023-02-15T05:17:36;17.05;;;11.25;;
60344;SDS011;46188;52.324;8.032;2023-02-15T05:20:02;17.35;;;10.38;;
60344;SDS011;46188;52.324;8.032;2023-02-15T05:22:28;18.42;;;11.55;;
60344;SDS011;46188;52.324;8.032;2023-02-15T05:24:53;18.48;;;11.05;;
60344;SDS011;46188;52.324;8.032;2023-02-15T05:27:37;18.63;;;10.90;;
60344;SDS011;46188;52.324;8.032;2023-02-15T05:30:21;18.92;;;10.77;;
60344;SDS011;46188;52.324;8.032;2023-02-15T05:32:47;20.40;;;10.85;;
60344;SDS011;46188;52.324;8.032;2023-02-15T05:35:13;20.10;;;11.30;;
60344;SDS011;46188;52.324;8.032;2023-02-15T05:37:40;21.25;;;11.48;;
60344;SDS011;46188;52.324;8.032;2023-02-15T05:40:06;20.38;;;11.80;;
60344;SDS011;46188;52.324;8.032;2023-02-15T05:42:32;21.48;;;12.13;;
60344;SDS011;46188;52.324;8.032;2023-02-15T05:44:57;17.95;;;10.65;;
60344;SDS011;46188;52.324;8.032;2023-02-15T05:47:23;16.23;;;10.43;;
60344;SDS011;46188;52.324;8.032;2023-02-15T05:49:48;19.73;;;12.18;;
60344;SDS011;46188;52.324;8.032;2023-02-15T05:52:13;18.75;;;10.85;;
60344;SDS011;46188;52.324;8.032;2023-02-15T05:54:39;19.45;;;11.57;;
60344;SDS011;46188;52.324;8.032;2023-02-15T05:57:04;20.45;;;10.35;;
60344;SDS011;46188;52.324;8.032;2023-02-15T05:59:30;21.33;;;11.68;;
60344;SDS011;46188;52.324;8.032;2023-02-15T06:01:55;20.75;;;11.00;;
60344;SDS011;46188;52.324;8.032;2023-02-15T06:04:21;22.85;;;12.25;;
60344;SDS011;46188;52.324;8.032;2023-02-15T06:06:46;18.65;;;11.45;;
60344;SDS011;46188;52.324;8.032;2023-02-15T06:09:12;18.83;;;11.45;;
60344;SDS011;46188;52.324;8.032;2023-02-15T06:11:37;20.65;;;12.00;;
60344;SDS011;46188;52.324;8.032;2023-02-15T06:14:03;20.98;;;11.68;;
60344;SDS011;46188;52.324;8.032;2023-02-15T06:16:28;17.90;;;11.52;;
60344;SDS011;46188;52.324;8.032;2023-02-15T06:18:54;18.75;;;11.10;;
60344;SDS011;46188;52.324;8.032;2023-02-15T06:21:19;17.77;;;10.85;;
60344;SDS011;46188;52.324;8.032;2023-02-15T06:23:45;20.98;;;12.10;;
60344;SDS011;46188;52.324;8.032;2023-02-15T06:26:10;20.63;;;10.95;;
60344;SDS011;46188;52.324;8.032;2023-02-15T06:28:36;20.33;;;10.85;;
60344;SDS011;46188;52.324;8.032;2023-02-15T06:31:02;21.02;;;10.63;;
60344;SDS011;46188;52.324;8.032;2023-02-15T06:33:28;21.13;;;11.40;;
60344;SDS011;46188;52.324;8.032;2023-02-15T06:35:55;21.63;;;12.43;;
60344;SDS011;46188;52.324;8.032;2023-02-15T06:38:21;17.27;;;10.68;;
60344;SDS011;46188;52.324;8.032;2023-02-15T06:40:47;18.17;;;10.68;;
60344;SDS011;46188;52.324;8.032;2023-02-15T06:43:12;20.77;;;11.55;;
60344;SDS011;46188;52.324;8.032;2023-02-15T06:45:38;18.13;;;10.82;;
60344;SDS011;46188;52.324;8.032;2023-02-15T06:48:04;19.48;;;10.63;;
60344;SDS011;46188;52.324;8.032;2023-02-15T06:50:31;19.15;;;11.20;;
60344;SDS011;46188;52.324;8.032;2023-02-15T06:52:57;20.98;;;11.20;;
60344;SDS011;46188;52.324;8.032;2023-02-15T06:55:23;20.08;;;11.43;;
60344;SDS011;46188;52.324;8.032;2023-02-15T06:57:49;19.35;;;10.63;;
60344;SDS011;46188;52.324;8.032;2023-02-15T07:00:15;22.05;;;11.85;;
60344;SDS011;46188;52.324;8.032;2023-02-15T07:02:40;16.73;;;10.48;;
60344;SDS011;46188;52.324;8.032;2023-02-15T07:05:06;19.42;;;10.90;;
60344;SDS011;46188;52.324;8.032;2023-02-15T07:07:31;21.13;;;11.95;;
60344;SDS011;46188;52.324;8.032;2023-02-15T07:09:57;19.77;;;10.93;;
60344;SDS011;46188;52.324;8.032;2023-02-15T07:12:22;21.63;;;11.73;;
60344;SDS011;46188;52.324;8.032;2023-02-15T07:15:07;16.15;;;9.75;;
60344;SDS011;46188;52.324;8.032;2023-02-15T07:17:34;22.02;;;11.25;;
60344;SDS011;46188;52.324;8.032;2023-02-15T07:20:00;19.02;;;10.93;;
60344;SDS011;46188;52.324;8.032;2023-02-15T07:22:26;22.10;;;12.60;;
60344;SDS011;46188;52.324;8.032;2023-02-15T07:24:52;19.13;;;11.65;;
60344;SDS011;46188;52.324;8.032;2023-02-15T07:27:19;18.42;;;10.75;;
60344;SDS011;46188;52.324;8.032;2023-02-15T07:29:45;20.65;;;11.35;;
60344;SDS011;46188;52.324;8.032;2023-02-15T07:32:11;21.52;;;11.50;;
60344;SDS011;46188;52.324;8.032;2023-02-15T07:34:36;19.60;;;10.93;;
60344;SDS011;46188;52.324;8.032;2023-02-15T07:37:02;19.73;;;11.45;;
60344;SDS011;46188;52.324;8.032;2023-02-15T07:39:27;23.15;;;11.75;;
60344;SDS011;46188;52.324;8.032;2023-02-15T07:41:53;20.10;;;11.85;;
60344;SDS011;46188;52.324;8.032;2023-02-15T07:44:18;21.13;;;12.02;;
60344;SDS011;46188;52.324;8.032;2023-02-15T07:46:44;18.73;;;10.82;;
60344;SDS011;46188;52.324;8.032;2023-02-15T07:49:09;19.20;;;11.63;;
60344;SDS011;46188;52.324;8.032;2023-02-15T07:51:34;25.20;;;12.23;;
60344;SDS011;46188;52.324;8.032;2023-02-15T07:54:00;21.27;;;11.82;;
60344;SDS011;46188;52.324;8.032;2023-02-15T07:56:25;22.00;;;12.18;;
60344;SDS011;46188;52.324;8.032;2023-02-15T07:58:51;21.88;;;12.15;;
60344;SDS011;46188;52.324;8.032;2023-02-15T08:01:23;18.70;;;10.80;;
60344;SDS011;46188;52.324;8.032;2023-02-15T08:03:54;19.33;;;11.07;;
60344;SDS011;46188;52.324;8.032;2023-02-15T08:06:20;19.00;;;11.80;;
60344;SDS011;46188;52.324;8.032;2023-02-15T08:08:46;19.95;;;10.82;;
60344;SDS011;46188;52.324;8.032;2023-02-15T08:19:00;16.88;;;10.88;;
60344;SDS011;46188;52.324;8.032;2023-02-15T08:23:59;19.63;;;11.73;;
60344;SDS011;46188;52.324;8.032;2023-02-15T08:26:25;18.35;;;11.43;;
60344;SDS011;46188;52.324;8.032;2023-02-15T08:28:52;18.00;;;11.40;;
60344;SDS011;46188;52.324;8.032;2023-02-15T08:31:18;20.88;;;11.68;;
60344;SDS011;46188;52.324;8.032;2023-02-15T08:33:44;16.70;;;10.38;;
60344;SDS011;46188;52.324;8.032;2023-02-15T08:36:12;18.92;;;10.95;;
60344;SDS011;46188;52.324;8.032;2023-02-15T08:38:42;15.27;;;10.40;;
60344;SDS011;46188;52.324;8.032;2023-02-15T08:41:18;18.13;;;10.55;;
60344;SDS011;46188;52.324;8.032;2023-02-15T08:43:45;16.35;;;10.20;;
60344;SDS011;46188;52.324;8.032;2023-02-15T08:46:12;18.15;;;12.40;;
60344;SDS011;46188;52.324;8.032;2023-02-15T08:48:38;17.42;;;11.20;;
60344;SDS011;46188;52.324;8.032;2023-02-15T08:51:05;17.90;;;10.38;;
60344;SDS011;46188;52.324;8.032;2023-02-15T08:53:31;18.33;;;11.27;;
60344;SDS011;46188;52.324;8.032;2023-02-15T08:55:57;20.15;;;11.63;;
60344;SDS011;46188;52.324;8.032;2023-02-15T08:58:23;16.40;;;10.40;;
60344;SDS011;46188;52.324;8.032;2023-02-15T09:00:49;18.70;;;12.43;;
60344;SDS011;46188;52.324;8.032;2023-02-15T09:03:15;19.50;;;11.73;;
60344;SDS011;46188;52.324;8.032;2023-02-15T09:05:41;16.48;;;10.75;;
60344;SDS011;46188;52.324;8.032;2023-02-15T09:08:06;18.35;;;10.82;;
60344;SDS011;46188;52.324;8.032;2023-02-15T09:10:32;15.57;;;10.63;;
60344;SDS011;46188;52.324;8.032;2023-02-15T09:12:57;18.85;;;11.20;;
60344;SDS011;46188;52.324;8.032;2023-02-15T09:15:22;16.85;;;10.60;;
60344;SDS011;46188;52.324;8.032;2023-02-15T09:17:48;16.17;;;9.63;;
60344;SDS011;46188;52.324;8.032;2023-02-15T09:20:13;17.00;;;10.50;;
60344;SDS011;46188;52.324;8.032;2023-02-15T09:22:39;14.38;;;9.93;;
60344;SDS011;46188;52.324;8.032;2023-02-15T09:25:04;15.98;;;10.43;;
60344;SDS011;46188;52.324;8.032;2023-02-15T09:27:30;14.60;;;10.68;;
60344;SDS011;46188;52.324;8.032;2023-02-15T09:29:55;16.50;;;11.25;;
60344;SDS011;46188;52.324;8.032;2023-02-15T09:32:21;17.00;;;10.82;;
60344;SDS011;46188;52.324;8.032;2023-02-15T09:34:47;17.77;;;10.10;;
60344;SDS011;46188;52.324;8.032;2023-02-15T09:37:13;16.27;;;10.70;;
60344;SDS011;46188;52.324;8.032;2023-02-15T09:39:39;16.30;;;10.75;;
60344;SDS011;46188;52.324;8.032;2023-02-15T09:52:25;16.35;;;11.20;;
60344;SDS011;46188;52.324;8.032;2023-02-15T10:12:02;19.25;;;11.15;;
60344;SDS011;46188;52.324;8.032;2023-02-15T10:17:19;18.00;;;11.40;;
60344;SDS011;46188;52.324;8.032;2023-02-15T10:28:04;18.73;;;12.25;;
60344;SDS011;46188;52.324;8.032;2023-02-15T10:30:42;16.58;;;10.15;;
60344;SDS011;46188;52.324;8.032;2023-02-15T10:33:32;18.65;;;11.38;;
60344;SDS011;46188;52.324;8.032;2023-02-15T10:36:08;15.98;;;10.77;;
60344;SDS011;46188;52.324;8.032;2023-02-15T10:44:22;19.45;;;13.00;;
60344;SDS011;46188;52.324;8.032;2023-02-15T10:47:09;16.40;;;11.20;;
60344;SDS011;46188;52.324;8.032;2023-02-15T10:58:38;19.15;;;11.80;;
60344;SDS011;46188;52.324;8.032;2023-02-15T11:01:24;17.55;;;11.48;;
60344;SDS011;46188;52.324;8.032;2023-02-15T11:06:28;17.48;;;12.07;;
60344;SDS011;46188;52.324;8.032;2023-02-15T11:08:59;18.80;;;12.10;;
60344;SDS011;46188;52.324;8.032;2023-02-15T11:11:36;18.58;;;12.25;;
60344;SDS011;46188;52.324;8.032;2023-02-15T11:14:12;19.17;;;12.32;;
60344;SDS011;46188;52.324;8.032;2023-02-15T11:16:44;19.48;;;13.60;;
60344;SDS011;46188;52.324;8.032;2023-02-15T11:19:13;17.88;;;13.35;;
60344;SDS011;46188;52.324;8.032;2023-02-15T11:22:09;18.38;;;12.82;;
60344;SDS011;46188;52.324;8.032;2023-02-15T11:24:43;18.88;;;13.13;;
60344;SDS011;46188;52.324;8.032;2023-02-15T11:27:20;21.80;;;14.00;;
60344;SDS011;46188;52.324;8.032;2023-02-15T11:32:46;20.42;;;12.73;;
60344;SDS011;46188;52.324;8.032;2023-02-15T11:35:32;18.13;;;13.15;;
60344;SDS011;46188;52.324;8.032;2023-02-15T11:38:21;20.27;;;13.57;;
60344;SDS011;46188;52.324;8.032;2023-02-15T11:40:59;19.02;;;13.43;;
60344;SDS011;46188;52.324;8.032;2023-02-15T11:43:39;21.17;;;13.75;;
60344;SDS011;46188;52.324;8.032;2023-02-15T11:48:39;21.33;;;14.02;;
60344;SDS011;46188;52.324;8.032;2023-02-15T11:51:08;17.25;;;13.52;;
60344;SDS011;46188;52.324;8.032;2023-02-15T11:53:37;20.10;;;13.57;;
60344;SDS011;46188;52.324;8.032;2023-02-15T11:56:04;23.58;;;15.73;;
60344;SDS011;46188;52.324;8.032;2023-02-15T11:58:40;21.63;;;14.90;;
60344;SDS011;46188;52.324;8.032;2023-02-15T12:01:18;22.05;;;15.23;;
60344;SDS011;46188;52.324;8.032;2023-02-15T12:03:50;21.58;;;15.55;;
60344;SDS011;46188;52.324;8.032;2023-02-15T12:06:28;22.65;;;16.73;;
60344;SDS011;46188;52.324;8.032;2023-02-15T12:08:57;26.95;;;16.25;;
60344;SDS011;46188;52.324;8.032;2023-02-15T12:11:44;29.92;;;18.38;;
60344;SDS011;46188;52.324;8.032;2023-02-15T12:14:10;28.02;;;17.17;;
60344;SDS011;46188;52.324;8.032;2023-02-15T12:16:41;26.52;;;17.95;;
60344;SDS011;46188;52.324;8.032;2023-02-15T12:19:31;31.45;;;17.30;;
60344;SDS011;46188;52.324;8.032;2023-02-15T12:22:05;28.40;;;17.48;;
60344;SDS011;46188;52.324;8.032;2023-02-15T12:24:46;27.75;;;17.35;;
60344;SDS011;46188;52.324;8.032;2023-02-15T12:27:47;31.33;;;19.10;;
60344;SDS011;46188;52.324;8.032;2023-02-15T12:30:17;26.73;;;16.92;;
60344;SDS011;46188;52.324;8.032;2023-02-15T12:32:57;26.48;;;16.58;;
60344;SDS011;46188;52.324;8.032;2023-02-15T12:35:31;30.02;;;17.40;;
60344;SDS011;46188;52.324;8.032;2023-02-15T12:38:01;29.45;;;18.20;;
60344;SDS011;46188;52.324;8.032;2023-02-15T12:40:30;26.77;;;17.40;;
60344;SDS011;46188;52.324;8.032;2023-02-15T12:42:56;27.30;;;17.77;;
60344;SDS011;46188;52.324;8.032;2023-02-15T12:45:27;24.60;;;16.63;;
60344;SDS011;46188;52.324;8.032;2023-02-15T12:48:08;27.63;;;17.38;;
60344;SDS011;46188;52.324;8.032;2023-02-15T12:50:34;28.00;;;17.15;;
60344;SDS011;46188;52.324;8.032;2023-02-15T12:55:50;25.67;;;15.52;;
60344;SDS011;46188;52.324;8.032;2023-02-15T13:01:12;26.30;;;16.95;;
60344;SDS011;46188;52.324;8.032;2023-02-15T13:03:37;25.85;;;14.98;;
60344;SDS011;46188;52.324;8.032;2023-02-15T13:06:04;24.70;;;15.98;;
60344;SDS011;46188;52.324;8.032;2023-02-15T13:08:34;26.27;;;16.20;;
60344;SDS011;46188;52.324;8.032;2023-02-15T13:11:08;26.33;;;15.70;;
60344;SDS011;46188;52.324;8.032;2023-02-15T13:13:55;27.88;;;18.13;;
60344;SDS011;46188;52.324;8.032;2023-02-15T13:22:13;28.05;;;15.82;;
60344;SDS011;46188;52.324;8.032;2023-02-15T13:24:43;26.90;;;16.30;;
60344;SDS011;46188;52.324;8.032;2023-02-15T13:27:13;26.05;;;15.68;;
60344;SDS011;46188;52.324;8.032;2023-02-15T13:29:46;26.75;;;16.23;;
60344;SDS011;46188;52.324;8.032;2023-02-15T13:32:30;28.42;;;15.65;;
60344;SDS011;46188;52.324;8.032;2023-02-15T13:34:59;28.38;;;16.33;;
60344;SDS011;46188;52.324;8.032;2023-02-15T13:40:15;29.38;;;16.95;;
60344;SDS011;46188;52.324;8.032;2023-02-15T13:43:12;28.33;;;16.27;;
60344;SDS011;46188;52.324;8.032;2023-02-15T13:53:49;32.90;;;15.90;;
60344;SDS011;46188;52.324;8.032;2023-02-15T13:56:33;26.67;;;16.35;;
60344;SDS011;46188;52.324;8.032;2023-02-15T13:59:16;30.58;;;16.60;;
60344;SDS011;46188;52.324;8.032;2023-02-15T14:01:56;25.25;;;15.25;;
60344;SDS011;46188;52.324;8.032;2023-02-15T14:15:53;32.58;;;16.50;;
60344;SDS011;46188;52.324;8.032;2023-02-15T14:18:25;23.08;;;15.02;;
60344;SDS011;46188;52.324;8.032;2023-02-15T14:21:06;29.48;;;14.75;;
60344;SDS011;46188;52.324;8.032;2023-02-15T14:31:32;26.60;;;15.95;;
60344;SDS011;46188;52.324;8.032;2023-02-15T14:34:02;25.08;;;14.77;;
60344;SDS011;46188;52.324;8.032;2023-02-15T14:36:29;26.52;;;14.88;;
60344;SDS011;46188;52.324;8.032;2023-02-15T14:42:21;28.08;;;15.68;;
60344;SDS011;46188;52.324;8.032;2023-02-15T14:44:49;27.23;;;15.85;;
60344;SDS011;46188;52.324;8.032;2023-02-15T14:47:26;23.65;;;14.55;;
60344;SDS011;46188;52.324;8.032;2023-02-15T14:53:14;24.48;;;15.85;;
60344;SDS011;46188;52.324;8.032;2023-02-15T15:01:36;27.60;;;14.77;;
60344;SDS011;46188;52.324;8.032;2023-02-15T15:04:04;24.45;;;15.32;;
60344;SDS011;46188;52.324;8.032;2023-02-15T15:06:34;24.70;;;14.05;;
60344;SDS011;46188;52.324;8.032;2023-02-15T15:09:10;22.88;;;13.68;;
60344;SDS011;46188;52.324;8.032;2023-02-15T15:11:49;25.05;;;14.75;;
60344;SDS011;46188;52.324;8.032;2023-02-15T15:16:56;28.38;;;16.17;;
60344;SDS011;46188;52.324;8.032;2023-02-15T15:19:56;28.13;;;15.95;;
60344;SDS011;46188;52.324;8.032;2023-02-15T15:22:20;25.00;;;14.65;;
60344;SDS011;46188;52.324;8.032;2023-02-15T15:38:02;26.52;;;15.13;;
60344;SDS011;46188;52.324;8.032;2023-02-15T15:40:48;24.83;;;14.57;;
60344;SDS011;46188;52.324;8.032;2023-02-15T15:49:30;23.60;;;14.73;;
60344;SDS011;46188;52.324;8.032;2023-02-15T15:52:01;27.23;;;15.60;;
60344;SDS011;46188;52.324;8.032;2023-02-15T15:54:33;29.35;;;15.82;;
60344;SDS011;46188;52.324;8.032;2023-02-15T15:57:01;28.73;;;15.48;;
60344;SDS011;46188;52.324;8.032;2023-02-15T15:59:29;24.77;;;15.73;;
60344;SDS011;46188;52.324;8.032;2023-02-15T16:02:03;24.65;;;16.50;;
60344;SDS011;46188;52.324;8.032;2023-02-15T16:04:31;26.85;;;17.38;;
60344;SDS011;46188;52.324;8.032;2023-02-15T16:07:13;26.90;;;17.58;;
60344;SDS011;46188;52.324;8.032;2023-02-15T16:09:55;30.75;;;17.27;;
60344;SDS011;46188;52.324;8.032;2023-02-15T16:12:25;27.15;;;15.50;;
60344;SDS011;46188;52.324;8.032;2023-02-15T16:14:53;29.63;;;18.02;;
60344;SDS011;46188;52.324;8.032;2023-02-15T16:17:21;29.13;;;20.30;;
60344;SDS011;46188;52.324;8.032;2023-02-15T16:19:49;29.77;;;17.52;;
60344;SDS011;46188;52.324;8.032;2023-02-15T16:22:21;27.73;;;17.58;;
60344;SDS011;46188;52.324;8.032;2023-02-15T16:27:29;27.17;;;16.88;;
60344;SDS011;46188;52.324;8.032;2023-02-15T16:29:57;32.35;;;17.92;;
60344;SDS011;46188;52.324;8.032;2023-02-15T16:32:24;26.25;;;16.48;;
60344;SDS011;46188;52.324;8.032;2023-02-15T16:34:59;27.17;;;16.17;;
60344;SDS011;46188;52.324;8.032;2023-02-15T16:37:27;24.70;;;15.48;;
60344;SDS011;46188;52.324;8.032;2023-02-15T16:39:57;25.55;;;17.10;;
60344;SDS011;46188;52.324;8.032;2023-02-15T16:42:23;32.15;;;17.08;;
60344;SDS011;46188;52.324;8.032;2023-02-15T16:44:50;27.58;;;15.68;;
60344;SDS011;46188;52.324;8.032;2023-02-15T16:47:26;24.95;;;16.00;;
60344;SDS011;46188;52.324;8.032;2023-02-15T16:49:56;28.02;;;16.80;;
60344;SDS011;46188;52.324;8.032;2023-02-15T16:52:25;26.15;;;15.88;;
60344;SDS011;46188;52.324;8.032;2023-02-15T16:54:54;26.00;;;16.58;;
60344;SDS011;46188;52.324;8.032;2023-02-15T16:57:35;28.35;;;15.50;;
60344;SDS011;46188;52.324;8.032;2023-02-15T17:00:15;31.92;;;16.45;;
60344;SDS011;46188;52.324;8.032;2023-02-15T17:03:00;24.75;;;16.08;;
60344;SDS011;46188;52.324;8.032;2023-02-15T17:05:50;28.20;;;16.50;;
60344;SDS011;46188;52.324;8.032;2023-02-15T17:08:28;30.13;;;15.30;;
60344;SDS011;46188;52.324;8.032;2023-02-15T17:11:21;30.23;;;15.80;;
60344;SDS011;46188;52.324;8.032;2023-02-15T17:16:43;27.50;;;15.27;;
60344;SDS011;46188;52.324;8.032;2023-02-15T17:19:59;26.98;;;15.82;;
60344;SDS011;46188;52.324;8.032;2023-02-15T17:22:26;27.45;;;15.95;;
60344;SDS011;46188;52.324;8.032;2023-02-15T17:24:59;29.27;;;16.00;;
60344;SDS011;46188;52.324;8.032;2023-02-15T17:27:27;24.08;;;14.75;;
60344;SDS011;46188;52.324;8.032;2023-02-15T17:29:59;26.10;;;15.25;;
60344;SDS011;46188;52.324;8.032;2023-02-15T17:32:27;26.30;;;15.55;;
60344;SDS011;46188;52.324;8.032;2023-02-15T17:40:21;26.73;;;14.98;;
60344;SDS011;46188;52.324;8.032;2023-02-15T17:42:50;25.55;;;14.73;;
60344;SDS011;46188;52.324;8.032;2023-02-15T17:45:15;26.55;;;15.60;;
60344;SDS011;46188;52.324;8.032;2023-02-15T17:47:41;27.35;;;15.60;;
60344;SDS011;46188;52.324;8.032;2023-02-15T17:50:14;25.80;;;15.30;;
60344;SDS011;46188;52.324;8.032;2023-02-15T17:52:43;26.63;;;14.95;;
60344;SDS011;46188;52.324;8.032;2023-02-15T17:55:12;25.30;;;14.75;;